createdAt,value
2022-11-29T00:01:24.904Z,11.10
2022-11-29T00:03:52.587Z,11.10
2022-11-29T00:06:27.301Z,11.10
2022-11-29T00:08:59.992Z,11.10
2022-11-29T00:11:49.056Z,11.00
2022-11-29T00:14:19.673Z,11.10
2022-11-29T00:16:52.047Z,11.10
2022-11-29T00:19:19.194Z,11.00
2022-11-29T00:21:46.289Z,11.10
2022-11-29T00:24:13.538Z,11.10
2022-11-29T00:26:40.594Z,11.10
2022-11-29T00:29:07.663Z,11.10
2022-11-29T00:31:34.772Z,11.10
2022-11-29T00:34:03.342Z,11.10
2022-11-29T00:36:30.701Z,11.10
2022-11-29T00:38:57.717Z,11.10
2022-11-29T00:41:25.182Z,11.20
2022-11-29T00:43:52.123Z,11.10
2022-11-29T00:46:19.248Z,11.10
2022-11-29T00:48:46.233Z,11.10
2022-11-29T00:51:13.230Z,11.10
2022-11-29T00:53:40.321Z,11.10
2022-11-29T00:56:07.646Z,11.10
2022-11-29T00:58:36.006Z,11.10
2022-11-29T01:01:03.008Z,11.10
2022-11-29T01:03:29.996Z,11.00
2022-11-29T01:06:06.217Z,11.00
2022-11-29T01:08:33.420Z,11.10
2022-11-29T01:11:08.426Z,11.10
2022-11-29T01:13:35.841Z,11.10
2022-11-29T01:16:04.021Z,11.10
2022-11-29T01:18:31.599Z,11.10
2022-11-29T01:21:13.511Z,11.10
2022-11-29T01:23:41.509Z,11.10
2022-11-29T01:26:17.353Z,11.10
2022-11-29T01:28:47.451Z,11.10
2022-11-29T01:31:26.549Z,11.10
2022-11-29T01:33:55.730Z,11.00
2022-11-29T01:36:23.719Z,11.00
2022-11-29T01:38:51.071Z,11.10
2022-11-29T01:41:21.664Z,11.10
2022-11-29T01:44:26.663Z,11.10
2022-11-29T01:46:54.490Z,11.10
2022-11-29T01:49:29.038Z,11.00
2022-11-29T01:52:20.208Z,11.10
2022-11-29T01:54:50.621Z,11.10
2022-11-29T01:57:18.679Z,11.10
2022-11-29T01:59:52.458Z,11.10
2022-11-29T02:02:27.190Z,11.10
2022-11-29T02:04:59.226Z,11.10
2022-11-29T02:07:26.448Z,11.10
2022-11-29T02:09:53.391Z,11.10
2022-11-29T02:12:20.355Z,11.10
2022-11-29T02:15:09.016Z,11.10
2022-11-29T02:17:55.031Z,11.10
2022-11-29T02:20:56.103Z,11.10
2022-11-29T02:23:45.039Z,11.10
2022-11-29T02:26:14.730Z,11.10
2022-11-29T02:29:09.454Z,11.10
2022-11-29T02:32:00.639Z,11.10
2022-11-29T02:34:36.525Z,11.10
2022-11-29T02:37:12.518Z,11.10
2022-11-29T02:39:51.442Z,11.10
2022-11-29T02:42:55.713Z,11.10
2022-11-29T02:45:46.396Z,11.10
2022-11-29T02:48:42.862Z,11.10
2022-11-29T02:51:52.048Z,11.10
2022-11-29T02:54:36.703Z,11.10
2022-11-29T02:57:31.245Z,11.10
2022-11-29T03:00:18.180Z,11.10
2022-11-29T03:02:51.306Z,11.10
2022-11-29T03:05:42.016Z,11.10
2022-11-29T03:08:37.742Z,11.20
2022-11-29T03:11:07.498Z,11.10
2022-11-29T03:13:58.847Z,11.10
2022-11-29T03:16:47.707Z,11.10
2022-11-29T03:19:31.096Z,11.10
2022-11-29T03:22:36.558Z,11.20
2022-11-29T03:25:12.412Z,11.10
2022-11-29T03:28:01.752Z,11.10
2022-11-29T03:30:31.590Z,11.00
2022-11-29T03:33:28.063Z,11.00
2022-11-29T03:36:00.756Z,11.00
2022-11-29T03:38:35.021Z,11.00
2022-11-29T03:41:50.179Z,11.00
2022-11-29T03:44:18.634Z,11.10
2022-11-29T03:46:54.431Z,11.10
2022-11-29T03:49:29.388Z,11.10
2022-11-29T03:51:56.305Z,11.10
2022-11-29T03:54:47.009Z,11.00
2022-11-29T03:57:20.773Z,11.00
2022-11-29T03:59:58.525Z,11.00
2022-11-29T04:03:03.860Z,11.00
2022-11-29T04:05:48.547Z,11.00
2022-11-29T04:09:17.239Z,10.90
2022-11-29T04:12:08.439Z,10.90
2022-11-29T04:15:06.633Z,10.80
2022-11-29T04:18:10.955Z,10.80
2022-11-29T04:21:14.841Z,10.80
2022-11-29T04:24:00.759Z,10.80
2022-11-29T04:26:58.110Z,10.80
2022-11-29T04:29:44.280Z,10.80
2022-11-29T04:32:20.425Z,10.80
2022-11-29T04:34:56.323Z,10.80
2022-11-29T04:37:26.032Z,10.80
2022-11-29T04:40:02.094Z,10.70
2022-11-29T04:42:54.098Z,10.70
2022-11-29T04:45:39.156Z,10.60
2022-11-29T04:48:36.897Z,10.60
2022-11-29T04:51:19.974Z,10.60
2022-11-29T04:54:04.592Z,10.50
2022-11-29T04:56:42.855Z,10.50
2022-11-29T04:59:26.701Z,10.40
2022-11-29T05:02:05.702Z,10.30
2022-11-29T05:04:51.972Z,10.30
2022-11-29T05:07:56.172Z,10.20
2022-11-29T05:10:50.577Z,10.20
2022-11-29T05:13:42.559Z,10.10
2022-11-29T05:16:31.580Z,10.00
2022-11-29T05:19:01.292Z,9.90
2022-11-29T05:22:10.102Z,9.80
2022-11-29T05:25:11.031Z,9.80
2022-11-29T05:27:58.763Z,9.70
2022-11-29T05:30:42.395Z,9.80
2022-11-29T05:33:27.681Z,9.80
2022-11-29T05:36:22.745Z,9.70
2022-11-29T05:39:20.564Z,9.70
2022-11-29T05:42:09.590Z,9.70
2022-11-29T05:44:48.539Z,9.70
2022-11-29T05:47:28.219Z,9.70
2022-11-29T05:50:21.442Z,9.70
2022-11-29T05:53:00.382Z,9.70
2022-11-29T05:55:42.421Z,9.70
2022-11-29T05:58:37.266Z,9.80
2022-11-29T06:01:38.126Z,9.80
2022-11-29T06:04:17.845Z,9.80
2022-11-29T06:07:03.174Z,9.80
2022-11-29T06:09:37.807Z,9.90
2022-11-29T06:12:15.839Z,9.90
2022-11-29T06:15:11.685Z,9.90
2022-11-29T06:17:57.119Z,9.90
2022-11-29T06:20:42.287Z,9.90
2022-11-29T06:23:15.167Z,9.90
2022-11-29T06:25:53.554Z,10.00
2022-11-29T06:28:58.217Z,10.00
2022-11-29T06:31:54.659Z,10.00
2022-11-29T06:34:46.897Z,9.90
2022-11-29T06:37:20.329Z,9.90
2022-11-29T06:39:47.623Z,9.90
2022-11-29T06:42:14.610Z,9.90
2022-11-29T06:44:42.874Z,9.90
2022-11-29T06:47:24.381Z,9.90
2022-11-29T06:50:03.428Z,9.90
2022-11-29T06:52:49.073Z,9.80
2022-11-29T06:55:21.841Z,9.80
2022-11-29T06:58:20.860Z,9.80
2022-11-29T07:01:15.182Z,9.80
2022-11-29T07:04:03.053Z,9.80
2022-11-29T07:06:31.814Z,9.80
2022-11-29T07:09:14.752Z,9.70
2022-11-29T07:11:42.863Z,9.80
2022-11-29T07:14:10.038Z,9.70
2022-11-29T07:16:41.746Z,9.80
2022-11-29T07:19:46.193Z,9.70
2022-11-29T07:22:37.810Z,9.70
2022-11-29T07:25:23.322Z,9.60
2022-11-29T07:28:13.684Z,9.50
2022-11-29T07:30:40.577Z,9.40
2022-11-29T07:33:35.785Z,9.40
2022-11-29T07:36:29.350Z,9.40
2022-11-29T07:39:34.452Z,9.40
2022-11-29T07:42:42.940Z,9.50
2022-11-29T07:45:18.762Z,9.50
2022-11-29T07:47:46.414Z,9.60
2022-11-29T07:50:13.754Z,9.60
2022-11-29T07:52:40.729Z,9.60
2022-11-29T07:55:17.031Z,9.60
2022-11-29T07:57:45.612Z,9.70
2022-11-29T08:00:13.200Z,9.70
2022-11-29T08:02:41.054Z,9.70
2022-11-29T08:05:08.909Z,9.70
2022-11-29T08:07:37.391Z,9.60
2022-11-29T08:10:06.759Z,9.60
2022-11-29T08:12:33.817Z,9.50
2022-11-29T08:15:01.620Z,9.60
2022-11-29T08:17:28.693Z,9.50
2022-11-29T08:19:58.878Z,9.50
2022-11-29T08:22:28.186Z,9.50
2022-11-29T08:24:56.222Z,9.40
2022-11-29T08:27:23.203Z,9.50
2022-11-29T08:29:50.116Z,9.50
2022-11-29T08:32:17.187Z,9.60
2022-11-29T08:34:44.669Z,9.70
2022-11-29T08:37:11.773Z,9.70
2022-11-29T08:39:38.714Z,9.80
2022-11-29T08:42:05.841Z,9.80
2022-11-29T08:44:32.761Z,9.80
2022-11-29T08:47:18.285Z,9.80
2022-11-29T08:50:03.426Z,9.80
2022-11-29T08:52:55.632Z,9.80
2022-11-29T08:55:26.333Z,9.80
2022-11-29T08:57:54.852Z,10.00
2022-11-29T09:00:25.093Z,10.00
2022-11-29T09:02:53.037Z,10.20
2022-11-29T09:05:22.511Z,10.40
2022-11-29T09:07:50.252Z,10.50
2022-11-29T09:10:18.275Z,10.60
2022-11-29T09:12:47.438Z,10.80
2022-11-29T09:15:19.750Z,10.90
2022-11-29T09:17:53.917Z,11.00
2022-11-29T09:20:25.395Z,11.20
2022-11-29T09:23:01.151Z,11.30
2022-11-29T09:25:30.427Z,11.40
2022-11-29T09:28:04.458Z,11.50
2022-11-29T09:30:33.180Z,11.60
2022-11-29T09:33:05.467Z,11.70
2022-11-29T09:35:37.539Z,11.80
2022-11-29T09:38:05.890Z,11.90
2022-11-29T09:40:56.849Z,12.00
2022-11-29T09:43:40.102Z,12.10
2022-11-29T09:46:37.144Z,12.10
2022-11-29T09:49:37.606Z,12.20
2022-11-29T09:52:39.605Z,12.20
2022-11-29T09:55:28.256Z,12.20
2022-11-29T09:58:02.087Z,12.30
2022-11-29T10:00:42.038Z,12.40
2022-11-29T10:03:28.479Z,12.40
2022-11-29T10:06:11.439Z,12.50
2022-11-29T10:09:09.735Z,12.50
2022-11-29T10:12:00.099Z,12.60
2022-11-29T10:14:52.973Z,12.50
2022-11-29T10:17:49.978Z,12.50
2022-11-29T10:20:27.985Z,12.60
2022-11-29T10:23:01.369Z,12.60
2022-11-29T10:25:54.623Z,12.60
2022-11-29T10:28:27.194Z,12.60
2022-11-29T10:30:55.974Z,12.60
2022-11-29T10:33:28.479Z,12.60
2022-11-29T10:36:02.390Z,12.60
2022-11-29T10:38:31.134Z,12.60
2022-11-29T10:41:12.018Z,12.50
2022-11-29T10:43:39.327Z,12.50
2022-11-29T10:46:14.659Z,12.50
2022-11-29T10:48:42.160Z,12.50
2022-11-29T10:51:17.395Z,12.60
2022-11-29T10:53:45.833Z,12.60
2022-11-29T10:56:31.184Z,12.60
2022-11-29T10:59:03.194Z,12.60
2022-11-29T11:01:33.613Z,12.60
2022-11-29T11:04:04.280Z,12.60
2022-11-29T11:07:06.054Z,12.60
2022-11-29T11:09:35.732Z,12.70
2022-11-29T11:12:33.389Z,12.70
2022-11-29T11:15:24.898Z,12.70
2022-11-29T11:17:58.453Z,12.80
2022-11-29T11:20:28.730Z,12.70
2022-11-29T11:23:00.777Z,12.70
2022-11-29T11:25:35.640Z,12.70
2022-11-29T11:28:20.444Z,12.70
2022-11-29T11:30:54.399Z,12.70
2022-11-29T11:33:26.381Z,12.70
2022-11-29T11:36:11.810Z,12.70
2022-11-29T11:38:50.540Z,12.70
2022-11-29T11:41:49.404Z,12.60
2022-11-29T11:47:20.655Z,12.60
2022-11-29T11:49:54.440Z,12.50
2022-11-29T11:52:29.069Z,12.50
2022-11-29T11:55:00.783Z,12.60
2022-11-29T11:57:31.599Z,12.60
2022-11-29T12:00:05.202Z,12.70
2022-11-29T12:02:44.276Z,12.70
2022-11-29T12:05:17.242Z,12.70
2022-11-29T12:10:39.807Z,12.70
2022-11-29T12:13:17.619Z,12.60
2022-11-29T12:15:47.322Z,12.60
2022-11-29T12:18:38.001Z,12.60
2022-11-29T12:21:23.418Z,12.50
2022-11-29T12:24:27.625Z,12.50
2022-11-29T12:26:59.196Z,12.50
2022-11-29T12:29:30.032Z,12.40
2022-11-29T12:32:19.429Z,12.40
2022-11-29T12:35:00.847Z,12.50
2022-11-29T12:37:46.868Z,12.50
2022-11-29T12:40:38.275Z,12.50
2022-11-29T12:43:28.302Z,12.50
2022-11-29T12:46:05.737Z,12.40
2022-11-29T12:48:53.155Z,12.40
2022-11-29T12:51:27.941Z,12.40
2022-11-29T12:54:19.726Z,12.40
2022-11-29T12:56:58.517Z,12.40
2022-11-29T12:59:53.208Z,12.30
2022-11-29T13:02:22.983Z,12.30
2022-11-29T13:05:00.036Z,12.30
2022-11-29T13:07:57.220Z,12.30
2022-11-29T13:10:39.453Z,12.20
2022-11-29T13:13:41.762Z,12.20
2022-11-29T13:16:39.060Z,12.20
2022-11-29T13:19:24.571Z,12.10
2022-11-29T13:22:13.060Z,12.10
2022-11-29T13:24:52.069Z,12.00
2022-11-29T13:27:39.863Z,12.00
2022-11-29T13:30:07.417Z,11.90
2022-11-29T13:32:48.091Z,11.90
2022-11-29T13:35:15.041Z,11.90
2022-11-29T13:37:58.189Z,11.80
2022-11-29T13:40:48.361Z,11.80
2022-11-29T13:43:18.783Z,11.70
2022-11-29T13:46:16.751Z,11.60
2022-11-29T13:48:48.843Z,11.60
2022-11-29T13:51:42.970Z,11.60
2022-11-29T13:54:27.288Z,11.60
2022-11-29T13:57:10.321Z,11.60
2022-11-29T13:59:44.275Z,11.60
2022-11-29T14:02:30.025Z,11.50
2022-11-29T14:04:57.566Z,11.50
2022-11-29T14:07:24.584Z,11.50
2022-11-29T14:10:03.407Z,11.40
2022-11-29T14:12:31.287Z,11.50
2022-11-29T14:15:13.591Z,11.40
2022-11-29T14:17:57.172Z,11.40
2022-11-29T14:20:24.949Z,11.30
2022-11-29T14:23:10.032Z,11.30
2022-11-29T14:26:03.054Z,11.40
2022-11-29T14:28:40.861Z,11.30
2022-11-29T14:31:09.529Z,11.30
2022-11-29T14:33:47.462Z,11.30
2022-11-29T14:36:59.530Z,11.30
2022-11-29T14:39:48.075Z,11.30
2022-11-29T14:42:18.698Z,11.20
2022-11-29T14:44:56.088Z,11.20
2022-11-29T14:47:47.029Z,11.10
2022-11-29T14:50:33.469Z,11.10
2022-11-29T14:53:01.049Z,11.20
2022-11-29T14:55:29.785Z,11.20
2022-11-29T14:58:06.255Z,11.20
2022-11-29T15:00:38.211Z,11.20
2022-11-29T15:03:13.367Z,11.20
2022-11-29T15:05:46.173Z,11.20
2022-11-29T15:08:28.367Z,11.20
2022-11-29T15:11:04.424Z,11.20
2022-11-29T15:13:34.820Z,11.20
2022-11-29T15:16:29.544Z,11.20
2022-11-29T15:19:15.416Z,11.20
2022-11-29T15:22:07.484Z,11.20
2022-11-29T15:24:54.915Z,11.20
2022-11-29T15:27:22.919Z,11.20
2022-11-29T15:29:50.520Z,11.20
2022-11-29T15:32:32.775Z,11.20
2022-11-29T15:35:00.319Z,11.20
2022-11-29T15:37:38.971Z,11.20
2022-11-29T15:40:14.923Z,11.20
2022-11-29T15:42:55.541Z,11.20
2022-11-29T15:45:37.763Z,11.10
2022-11-29T15:48:32.179Z,11.20
2022-11-29T15:51:18.056Z,11.20
2022-11-29T15:54:13.175Z,11.10
2022-11-29T15:56:56.391Z,11.10
2022-11-29T15:59:35.439Z,11.10
2022-11-29T16:02:24.932Z,11.10
2022-11-29T16:04:55.952Z,11.10
2022-11-29T16:07:26.033Z,11.00
2022-11-29T16:10:01.720Z,11.00
2022-11-29T16:12:28.835Z,11.10
2022-11-29T16:14:58.126Z,11.00
2022-11-29T16:17:27.819Z,11.00
2022-11-29T16:20:23.433Z,11.00
2022-11-29T16:23:14.994Z,11.10
2022-11-29T16:25:50.350Z,11.00
2022-11-29T16:28:18.552Z,11.00
2022-11-29T16:30:45.766Z,11.00
2022-11-29T16:33:24.800Z,11.00
2022-11-29T16:36:02.576Z,11.00
2022-11-29T16:38:29.931Z,11.00
2022-11-29T16:41:04.052Z,11.00
2022-11-29T16:43:55.508Z,11.00
2022-11-29T16:46:22.700Z,11.00
2022-11-29T16:48:50.938Z,11.00
2022-11-29T16:51:37.729Z,10.90
2022-11-29T16:54:25.582Z,11.00
2022-11-29T16:56:54.493Z,11.00
2022-11-29T16:59:27.365Z,10.90
2022-11-29T17:01:56.388Z,10.90
2022-11-29T17:04:25.047Z,10.90
2022-11-29T17:06:54.338Z,10.90
2022-11-29T17:09:27.969Z,11.00
2022-11-29T17:11:56.346Z,11.00
2022-11-29T17:14:23.428Z,11.00
2022-11-29T17:16:52.027Z,11.00
2022-11-29T17:19:25.557Z,11.00
2022-11-29T17:21:53.529Z,11.00
2022-11-29T17:24:22.223Z,11.00
2022-11-29T17:26:49.788Z,11.00
2022-11-29T17:29:17.680Z,11.00
2022-11-29T17:31:46.391Z,11.00
2022-11-29T17:34:13.816Z,11.00
2022-11-29T17:36:41.032Z,11.00
2022-11-29T17:39:08.611Z,11.00
2022-11-29T17:41:36.111Z,11.00
2022-11-29T17:44:03.470Z,11.00
2022-11-29T17:46:32.542Z,11.00
2022-11-29T17:49:01.878Z,11.00
2022-11-29T17:51:51.044Z,11.00
2022-11-29T17:54:16.506Z,11.00
2022-11-29T17:56:43.441Z,11.00
2022-11-29T17:59:10.390Z,11.00
2022-11-29T18:01:37.570Z,11.00
2022-11-29T18:04:06.353Z,11.00
2022-11-29T18:06:38.508Z,11.00
2022-11-29T18:09:07.668Z,11.00
2022-11-29T18:11:48.006Z,11.00
2022-11-29T18:14:28.405Z,11.00
2022-11-29T18:16:55.600Z,11.00
2022-11-29T18:19:26.005Z,11.00
2022-11-29T18:21:53.011Z,11.00
2022-11-29T18:24:20.061Z,11.00
2022-11-29T18:26:47.519Z,11.00
2022-11-29T18:29:17.648Z,10.90
2022-11-29T18:31:46.245Z,11.00
2022-11-29T18:34:14.281Z,10.90
2022-11-29T18:36:44.421Z,10.90
2022-11-29T18:39:17.924Z,10.90
2022-11-29T18:41:48.617Z,10.90
2022-11-29T18:44:17.996Z,10.90
2022-11-29T18:46:46.665Z,10.90
2022-11-29T18:49:16.051Z,10.90
2022-11-29T18:51:44.997Z,10.90
2022-11-29T18:54:13.060Z,10.90
2022-11-29T18:56:40.837Z,10.90
2022-11-29T18:59:11.322Z,10.90
2022-11-29T19:01:42.537Z,10.90
2022-11-29T19:04:15.625Z,10.90
2022-11-29T19:06:43.511Z,10.90
2022-11-29T19:09:16.833Z,10.80
2022-11-29T19:11:43.987Z,10.90
2022-11-29T19:14:12.806Z,10.80
2022-11-29T19:16:46.178Z,10.90
2022-11-29T19:19:13.602Z,10.80
2022-11-29T19:21:41.132Z,10.80
2022-11-29T19:24:15.966Z,10.80
2022-11-29T19:26:45.002Z,10.80
2022-11-29T19:29:16.064Z,10.80
2022-11-29T19:31:43.674Z,10.80
2022-11-29T19:34:11.637Z,10.80
2022-11-29T19:36:43.394Z,10.80
2022-11-29T19:39:13.227Z,10.80
2022-11-29T19:41:43.202Z,10.80
2022-11-29T19:44:10.781Z,10.80
2022-11-29T19:46:46.048Z,10.80
2022-11-29T19:49:13.313Z,10.80
2022-11-29T19:51:40.965Z,10.70
2022-11-29T19:54:09.856Z,10.80
2022-11-29T19:56:38.187Z,10.70
2022-11-29T19:59:07.650Z,10.70
2022-11-29T20:01:40.948Z,10.70
2022-11-29T20:04:10.280Z,10.70
2022-11-29T20:06:37.544Z,10.70
2022-11-29T20:09:05.004Z,10.70
2022-11-29T20:11:32.137Z,10.70
2022-11-29T20:14:01.268Z,10.70
2022-11-29T20:16:30.532Z,10.70
2022-11-29T20:18:58.427Z,10.70
2022-11-29T20:21:31.368Z,10.70
2022-11-29T20:24:03.577Z,10.60
2022-11-29T20:26:34.319Z,10.60
2022-11-29T20:29:02.405Z,10.60
2022-11-29T20:31:30.352Z,10.60
2022-11-29T20:33:57.744Z,10.60
2022-11-29T20:36:40.084Z,10.60
2022-11-29T20:39:22.199Z,10.60
2022-11-29T20:42:39.487Z,10.60
2022-11-29T20:45:09.062Z,10.60
2022-11-29T20:47:53.252Z,10.50
2022-11-29T20:50:24.083Z,10.50
2022-11-29T20:53:22.672Z,10.50
2022-11-29T20:55:49.947Z,10.50
2022-11-29T20:58:18.402Z,10.40
2022-11-29T21:00:46.110Z,10.40
2022-11-29T21:03:17.773Z,10.40
2022-11-29T21:05:44.865Z,10.40
2022-11-29T21:08:14.249Z,10.50
2022-11-29T21:10:41.374Z,10.50
2022-11-29T21:13:10.785Z,10.50
2022-11-29T21:15:37.968Z,10.50
2022-11-29T21:18:14.418Z,10.60
2022-11-29T21:20:43.489Z,10.60
2022-11-29T21:23:16.384Z,10.60
2022-11-29T21:25:45.688Z,10.60
2022-11-29T21:28:15.011Z,10.60
2022-11-29T21:30:43.342Z,10.50
2022-11-29T21:33:11.339Z,10.60
2022-11-29T21:35:40.071Z,10.50
2022-11-29T21:38:13.389Z,10.60
2022-11-29T21:40:40.500Z,10.60
2022-11-29T21:43:07.519Z,10.60
2022-11-29T21:45:34.587Z,10.60
2022-11-29T21:48:01.700Z,10.60
2022-11-29T21:50:28.772Z,10.60
2022-11-29T21:52:56.441Z,10.60
2022-11-29T21:55:30.014Z,10.60
2022-11-29T21:57:59.054Z,10.60
2022-11-29T22:00:26.297Z,10.60
2022-11-29T22:02:53.358Z,10.60
2022-11-29T22:05:20.369Z,10.60
2022-11-29T22:07:47.404Z,10.60
2022-11-29T22:10:14.510Z,10.60
2022-11-29T22:12:51.254Z,10.60
2022-11-29T22:15:24.586Z,10.60
2022-11-29T22:17:56.394Z,10.60
2022-11-29T22:20:23.608Z,10.60
2022-11-29T22:22:54.488Z,10.60
2022-11-29T22:25:24.176Z,10.60
2022-11-29T22:27:51.190Z,10.60
2022-11-29T22:30:18.198Z,10.60
2022-11-29T22:32:45.238Z,10.60
2022-11-29T22:35:12.204Z,10.60
2022-11-29T22:37:39.343Z,10.60
2022-11-29T22:40:07.186Z,10.60
2022-11-29T22:42:34.326Z,10.60
2022-11-29T22:45:02.272Z,10.60
2022-11-29T22:47:29.462Z,10.60
2022-11-29T22:49:56.509Z,10.60
2022-11-29T22:52:23.539Z,10.60
2022-11-29T22:54:50.557Z,10.60
2022-11-29T22:57:17.667Z,10.60
2022-11-29T22:59:44.651Z,10.60
2022-11-29T23:02:11.706Z,10.60
2022-11-29T23:04:38.723Z,10.60
2022-11-29T23:07:05.861Z,10.60
2022-11-29T23:09:32.848Z,10.60
2022-11-29T23:11:59.876Z,10.60
2022-11-29T23:14:26.921Z,10.60
2022-11-29T23:16:54.887Z,10.60
2022-11-29T23:19:21.916Z,10.60
2022-11-29T23:21:49.113Z,10.60
2022-11-29T23:24:16.271Z,10.60
2022-11-29T23:26:47.271Z,10.70
2022-11-29T23:29:17.757Z,10.60
2022-11-29T23:31:44.923Z,10.70
2022-11-29T23:34:12.197Z,10.70
2022-11-29T23:36:39.298Z,10.70
2022-11-29T23:39:06.908Z,10.70
2022-11-29T23:41:35.761Z,10.70
2022-11-29T23:44:06.752Z,10.70
2022-11-29T23:46:35.397Z,10.70
2022-11-29T23:49:02.655Z,10.70
2022-11-29T23:51:29.709Z,10.60
2022-11-29T23:53:56.792Z,10.60
2022-11-29T23:56:23.985Z,10.70
2022-11-29T23:58:51.054Z,10.60
